Check out our new BloomSky Weather System.

Active alerts


No alerts


Thunder radar  blitzortung!


Rain radar more information rain snow radar


Visit our other weather sites:

Template documentation
and downloads

And another site



Weather Underground History page Text

Daily Summary for April 3, 2017 Units:  Metric    English   Both
« Previous Day
Next Day »
Daily Weekly Monthly Yearly Custom
  High: Low: Average:
Temperature: 29.9 °C 12.9 °C 21.7 °C
Dew Point: 18.7 °C 11.8 °C 14.3 °C
Humidity: 94 % 35 % 66 %
Wind Speed: 16.1 km/h 0 km/h 2.7 km/h
Wind Gust: 24.1 km/h - -
Wind:- - SW
Pressure: 1008.4 hPa 1004.6 hPa -
Precipitation: 0 mm    
Historical Graphs
 
 
Tabular Data for April 3, 2017
Time Temperature Dew Point Pressure Wind Wind Speed Wind Gust Humidity Rainfall Rate (Hourly)
00:02 19.7 °C 18.7 °C 1005 hPa Calm   3.2 km/h 94 % 0 mm
00:07 19.6 °C 18.6 °C 1005 hPa Calm   1.6 km/h 94 % 0 mm
00:12 19.6 °C 18.6 °C 1005.3 hPa Calm   3.2 km/h 94 % 0 mm
00:17 19.6 °C 18.4 °C 1005.6 hPa Calm   6.4 km/h 93 % 0 mm
00:22 19.6 °C 18.4 °C 1006 hPa SSW 1.6 km/h 6.4 km/h 93 % 0 mm
00:27 19.6 °C 18.3 °C 1006 hPa Calm   8 km/h 92 % 0 mm
00:32 19.7 °C 18.4 °C 1006.7 hPa SW 3.2 km/h 8 km/h 92 % 0 mm
00:37 19.7 °C 18.2 °C 1006.7 hPa Calm   8 km/h 91 % 0 mm
00:42 19.6 °C 18.1 °C 1006.7 hPa Calm   4.8 km/h 91 % 0 mm
00:47 19.6 °C 18.1 °C 1007 hPa Calm   6.4 km/h 91 % 0 mm
00:52 19.6 °C 18.1 °C 1007 hPa Calm   6.4 km/h 91 % 0 mm
00:57 19.5 °C 17.8 °C 1006.7 hPa West 9.7 km/h 9.7 km/h 90 % 0 mm
01:02 19.5 °C 17.5 °C 1006.7 hPa WNW 1.6 km/h 9.7 km/h 88 % 0 mm
01:07 19.6 °C 17.4 °C 1006 hPa NNW 3.2 km/h 9.7 km/h 87 % 0 mm
01:12 19.5 °C 17.3 °C 1006.7 hPa WSW 1.6 km/h 9.7 km/h 87 % 0 mm
01:17 19.5 °C 17.1 °C 1006.7 hPa North 1.6 km/h 9.7 km/h 86 % 0 mm
01:22 19.4 °C 16.8 °C 1006.7 hPa SSW 1.6 km/h 9.7 km/h 85 % 0 mm
01:27 19.3 °C 16.7 °C 1006.7 hPa Calm   9.7 km/h 85 % 0 mm
01:32 19.2 °C 16.4 °C 1006.7 hPa West 4.8 km/h 11.3 km/h 84 % 0 mm
01:37 19.1 °C 16.3 °C 1006.7 hPa WSW 8 km/h 11.3 km/h 84 % 0 mm
01:42 19.1 °C 16.1 °C 1007 hPa NNW 8 km/h 14.5 km/h 83 % 0 mm
01:47 19 °C 16 °C 1006.7 hPa SE 1.6 km/h 14.5 km/h 83 % 0 mm
01:52 18.9 °C 15.9 °C 1006.7 hPa WNW 3.2 km/h 14.5 km/h 83 % 0 mm
01:57 18.9 °C 15.9 °C 1006.7 hPa WSW 1.6 km/h 14.5 km/h 83 % 0 mm
02:02 18.8 °C 15.9 °C 1007 hPa SW 1.6 km/h 14.5 km/h 83 % 0 mm
02:07 18.6 °C 15.7 °C 1007 hPa West 3.2 km/h 14.5 km/h 83 % 0 mm
02:12 18.4 °C 15.1 °C 1007 hPa NW 6.4 km/h 20.9 km/h 81 % 0 mm
02:17 18.3 °C 15 °C 1007 hPa WNW 9.7 km/h 20.9 km/h 81 % 0 mm
02:22 18.2 °C 14.9 °C 1007 hPa North 8 km/h 20.9 km/h 81 % 0 mm
02:27 18.1 °C 14.6 °C 1007 hPa West 9.7 km/h 12.9 km/h 80 % 0 mm
02:32 17.9 °C 14.2 °C 1007 hPa West 1.6 km/h 19.3 km/h 79 % 0 mm
02:33 17.9 °C 14.2 °C 1006.7 hPa SW 3.2 km/h 19.3 km/h 79 % 0 mm
02:38 17.7 °C 14 °C 1006.7 hPa SW 4.8 km/h 19.3 km/h 79 % 0 mm
02:43 17.5 °C 14 °C 1006.7 hPa Calm   19.3 km/h 80 % 0 mm
02:48 17.3 °C 14 °C 1006.7 hPa West 6.4 km/h 14.5 km/h 81 % 0 mm
02:53 17.2 °C 13.9 °C 1006.7 hPa West 1.6 km/h 14.5 km/h 81 % 0 mm
02:58 17.1 °C 13.8 °C 1006 hPa NW 1.6 km/h 16.1 km/h 81 % 0 mm
03:04 16.9 °C 13.6 °C 1006.3 hPa NW 1.6 km/h 16.1 km/h 81 % 0 mm
03:05 16.9 °C 13.8 °C 1006.3 hPa Calm   16.1 km/h 82 % 0 mm
03:10 16.8 °C 13.7 °C 1006.3 hPa WSW 3.2 km/h 16.1 km/h 82 % 0 mm
03:15 16.6 °C 13.7 °C 1006.3 hPa WNW 6.4 km/h 9.7 km/h 83 % 0 mm
03:20 16.5 °C 13.6 °C 1006.7 hPa Calm   11.3 km/h 83 % 0 mm
03:25 16.3 °C 13.4 °C 1006.7 hPa ENE 3.2 km/h 11.3 km/h 83 % 0 mm
03:30 16.3 °C 13.6 °C 1006.7 hPa West 4.8 km/h 11.3 km/h 84 % 0 mm
03:35 16.1 °C 13.4 °C 1006.7 hPa SSE 3.2 km/h 9.7 km/h 84 % 0 mm
03:40 15.9 °C 13.2 °C 1006.7 hPa SW 14.5 km/h 14.5 km/h 84 % 0 mm
03:45 15.8 °C 12.9 °C 1006.7 hPa WNW 4.8 km/h 14.5 km/h 83 % 0 mm
03:50 15.7 °C 12.8 °C 1006.7 hPa WSW 1.6 km/h 14.5 km/h 83 % 0 mm
03:55 15.6 °C 12.7 °C 1006.7 hPa SSW 3.2 km/h 14.5 km/h 83 % 0 mm
04:00 15.4 °C 12.7 °C 1006.7 hPa Calm   8 km/h 84 % 0 mm
04:05 15.2 °C 12.5 °C 1006.3 hPa Calm   8 km/h 84 % 0 mm
04:10 15.1 °C 12.6 °C 1006.3 hPa Calm   3.2 km/h 85 % 0 mm
04:15 14.9 °C 12.6 °C 1006.3 hPa Calm   3.2 km/h 86 % 0 mm
04:20 14.8 °C 12.5 °C 1006.3 hPa SW 1.6 km/h 3.2 km/h 86 % 0 mm
04:25 14.7 °C 12.6 °C 1006.3 hPa Calm   3.2 km/h 87 % 0 mm
04:30 14.6 °C 12.6 °C 1006.3 hPa Calm   3.2 km/h 88 % 0 mm
04:35 14.4 °C 12.4 °C 1006.3 hPa WNW 3.2 km/h 3.2 km/h 88 % 0 mm
04:40 14.4 °C 12.4 °C 1006 hPa Calm   3.2 km/h 88 % 0 mm
04:45 14.3 °C 12.3 °C 1006 hPa SSE 1.6 km/h 3.2 km/h 88 % 0 mm
04:51 14.3 °C 12.5 °C 1006 hPa Calm   3.2 km/h 89 % 0 mm
04:56 14.3 °C 12.5 °C 1006 hPa West 4.8 km/h 4.8 km/h 89 % 0 mm
05:01 14.3 °C 12.5 °C 1006 hPa Calm   6.4 km/h 89 % 0 mm
05:06 14.2 °C 12.4 °C 1006 hPa Calm   6.4 km/h 89 % 0 mm
05:11 14.1 °C 12.3 °C 1006 hPa Calm   6.4 km/h 89 % 0 mm
05:16 14 °C 12.4 °C 1006.3 hPa Calm   3.2 km/h 90 % 0 mm
05:21 13.9 °C 12.3 °C 1006.3 hPa West 1.6 km/h 1.6 km/h 90 % 0 mm
05:26 13.9 °C 12.5 °C 1006.7 hPa Calm   3.2 km/h 91 % 0 mm
05:30 13.9 °C 12.5 °C 1006.7 hPa Calm   3.2 km/h 91 % 0 mm
05:35 13.9 °C 12.6 °C 1006.7 hPa Calm   6.4 km/h 92 % 0 mm
05:40 13.9 °C 12.6 °C 1007 hPa WSW 1.6 km/h 6.4 km/h 92 % 0 mm
05:45 13.9 °C 12.6 °C 1007 hPa WSW 1.6 km/h 8 km/h 92 % 0 mm
05:50 13.9 °C 12.8 °C 1007 hPa SW 4.8 km/h 8 km/h 93 % 0 mm
05:55 13.9 °C 12.8 °C 1007 hPa SSW 1.6 km/h 8 km/h 93 % 0 mm
06:00 13.9 °C 12.8 °C 1007 hPa NNW 1.6 km/h 9.7 km/h 93 % 0 mm
06:05 13.9 °C 12.8 °C 1007 hPa Calm   9.7 km/h 93 % 0 mm
06:10 13.9 °C 12.6 °C 1007.3 hPa South 3.2 km/h 9.7 km/h 92 % 0 mm
06:15 13.9 °C 12.6 °C 1007 hPa WNW 3.2 km/h 8 km/h 92 % 0 mm
06:20 13.8 °C 12.5 °C 1007.3 hPa SE 1.6 km/h 6.4 km/h 92 % 0 mm
06:25 13.8 °C 12.5 °C 1007 hPa Calm   6.4 km/h 92 % 0 mm
06:30 13.7 °C 12.4 °C 1007.3 hPa West 8 km/h 8 km/h 92 % 0 mm
06:36 13.7 °C 12.4 °C 1007.3 hPa Calm   8 km/h 92 % 0 mm
06:40 13.6 °C 12.3 °C 1007.3 hPa Calm   8 km/h 92 % 0 mm
06:46 13.5 °C 12.2 °C 1007.3 hPa SSW 1.6 km/h 8 km/h 92 % 0 mm
06:51 13.5 °C 12.2 °C 1007.3 hPa WNW 3.2 km/h 6.4 km/h 92 % 0 mm
06:56 13.4 °C 12.1 °C 1007.3 hPa Calm   4.8 km/h 92 % 0 mm
07:01 13.3 °C 12 °C 1007.3 hPa Calm   3.2 km/h 92 % 0 mm
07:06 13.2 °C 11.9 °C 1007.3 hPa WNW 3.2 km/h 3.2 km/h 92 % 0 mm
07:11 13.2 °C 11.9 °C 1007.3 hPa SW 1.6 km/h 4.8 km/h 92 % 0 mm
07:16 13.1 °C 11.8 °C 1007.7 hPa Calm   4.8 km/h 92 % 0 mm
07:21 13.1 °C 11.8 °C 1007.7 hPa Calm   4.8 km/h 92 % 0 mm
07:26 13.1 °C 12 °C 1007.7 hPa Calm   3.2 km/h 93 % 0 mm
07:31 13.1 °C 12 °C 1007.7 hPa Calm   1.6 km/h 93 % 0 mm
07:36 13 °C 11.9 °C 1007.7 hPa Calm   1.6 km/h 93 % 0 mm
07:41 12.9 °C 11.8 °C 1007.7 hPa Calm   1.6 km/h 93 % 0 mm
07:46 12.9 °C 11.8 °C 1007.7 hPa Calm   1.6 km/h 93 % 0 mm
07:51 13.1 °C 12.2 °C 1007.7 hPa Calm   1.6 km/h 94 % 0 mm
07:56 13.6 °C 12.7 °C 1008 hPa Calm   1.6 km/h 94 % 0 mm
08:01 14.1 °C 13.1 °C 1008 hPa West 1.6 km/h 1.6 km/h 94 % 0 mm
08:06 14.6 °C 13.5 °C 1008 hPa Calm   1.6 km/h 93 % 0 mm
08:11 15.2 °C 14.1 °C 1008 hPa Calm   1.6 km/h 93 % 0 mm
08:16 15.7 °C 14.1 °C 1008 hPa Calm   1.6 km/h 90 % 0 mm
08:21 15.9 °C 14.1 °C 1008 hPa WNW 1.6 km/h 3.2 km/h 89 % 0 mm
08:26 16.3 °C 14.3 °C 1008 hPa Calm   3.2 km/h 88 % 0 mm
08:31 16.6 °C 14.1 °C 1008 hPa Calm   3.2 km/h 85 % 0 mm
08:36 16.7 °C 14 °C 1008 hPa Calm   6.4 km/h 84 % 0 mm
08:41 17 °C 13.9 °C 1008.4 hPa SSW 4.8 km/h 6.4 km/h 82 % 0 mm
08:46 17.2 °C 13.7 °C 1008.4 hPa WSW 1.6 km/h 6.4 km/h 80 % 0 mm
08:51 17.6 °C 14.1 °C 1008.4 hPa SSW 1.6 km/h 6.4 km/h 80 % 0 mm
08:56 17.9 °C 14 °C 1008.4 hPa Calm   4.8 km/h 78 % 0 mm
09:01 18.3 °C 14.2 °C 1008.4 hPa SSW 4.8 km/h 4.8 km/h 77 % 0 mm
09:02 18.4 °C 14.1 °C 1008.4 hPa SSW 6.4 km/h 6.4 km/h 76 % 0 mm
09:07 18.5 °C 13.8 °C 1008.4 hPa SSW 4.8 km/h 6.4 km/h 74 % 0 mm
09:12 18.7 °C 14.2 °C 1008.4 hPa SW 3.2 km/h 6.4 km/h 75 % 0 mm
09:17 18.7 °C 13.8 °C 1008.4 hPa SW 4.8 km/h 8 km/h 73 % 0 mm
09:22 18.8 °C 13.6 °C 1008.4 hPa SSW 4.8 km/h 9.7 km/h 72 % 0 mm
09:27 19 °C 13.4 °C 1008.4 hPa South 4.8 km/h 9.7 km/h 70 % 0 mm
09:32 19.4 °C 14 °C 1008.4 hPa SSW 6.4 km/h 9.7 km/h 71 % 0 mm
09:37 19.7 °C 13.9 °C 1008.4 hPa Calm   8 km/h 69 % 0 mm
09:42 20.1 °C 14.2 °C 1008.4 hPa SE 1.6 km/h 8 km/h 69 % 0 mm
09:47 20.4 °C 14.3 °C 1008.4 hPa SW 1.6 km/h 6.4 km/h 68 % 0 mm
09:52 20.6 °C 14 °C 1008.4 hPa SSW 4.8 km/h 6.4 km/h 66 % 0 mm
09:57 20.7 °C 14.4 °C 1008.4 hPa NW 1.6 km/h 6.4 km/h 67 % 0 mm
10:02 20.8 °C 13.5 °C 1008 hPa SW 3.2 km/h 6.4 km/h 63 % 0 mm
10:07 21.1 °C 14 °C 1008.4 hPa SW 1.6 km/h 6.4 km/h 64 % 0 mm
10:12 21.3 °C 14 °C 1008.4 hPa SSE 3.2 km/h 6.4 km/h 63 % 0 mm
10:17 21.6 °C 13.8 °C 1008.4 hPa SSW 1.6 km/h 6.4 km/h 61 % 0 mm
10:22 21.9 °C 14.5 °C 1008 hPa SW 1.6 km/h 6.4 km/h 63 % 0 mm
10:27 22 °C 14.4 °C 1008.4 hPa SSW 1.6 km/h 6.4 km/h 62 % 0 mm
10:32 22.2 °C 14.1 °C 1008.4 hPa SW 3.2 km/h 6.4 km/h 60 % 0 mm
10:37 22.4 °C 15 °C 1008.4 hPa SW 1.6 km/h 6.4 km/h 63 % 0 mm
10:43 22.6 °C 13.9 °C 1008.4 hPa South 3.2 km/h 6.4 km/h 58 % 0 mm
10:48 22.7 °C 14.5 °C 1008.4 hPa SW 9.7 km/h 9.7 km/h 60 % 0 mm
10:53 22.6 °C 13.4 °C 1008.4 hPa SSW 8 km/h 12.9 km/h 56 % 0 mm
10:58 22.9 °C 15.2 °C 1008.4 hPa SE 4.8 km/h 12.9 km/h 62 % 0 mm
11:03 23 °C 14 °C 1008.4 hPa South 1.6 km/h 12.9 km/h 57 % 0 mm
11:08 23.1 °C 14.6 °C 1008.4 hPa SW 8 km/h 12.9 km/h 59 % 0 mm
11:13 23.4 °C 14.7 °C 1008.4 hPa Calm   12.9 km/h 58 % 0 mm
11:18 23.6 °C 14.3 °C 1008.4 hPa SSW 4.8 km/h 12.9 km/h 56 % 0 mm
11:23 24 °C 15.2 °C 1008.4 hPa SE 1.6 km/h 11.3 km/h 58 % 0 mm
11:28 24 °C 13.8 °C 1008 hPa SSW 4.8 km/h 11.3 km/h 53 % 0 mm
11:33 24.1 °C 15 °C 1008 hPa SSE 4.8 km/h 12.9 km/h 57 % 0 mm
11:38 24.2 °C 14.6 °C 1008 hPa SW 1.6 km/h 12.9 km/h 55 % 0 mm
11:43 24.4 °C 14.2 °C 1008 hPa South 4.8 km/h 12.9 km/h 53 % 0 mm
11:48 24.8 °C 14.9 °C 1008 hPa SSE 4.8 km/h 12.9 km/h 54 % 0 mm
11:53 25 °C 13.5 °C 1007.7 hPa South 3.2 km/h 12.9 km/h 49 % 0 mm
11:58 25.3 °C 13.8 °C 1007.7 hPa NNW 3.2 km/h 11.3 km/h 49 % 0 mm
12:03 25.5 °C 13.4 °C 1007.7 hPa West 3.2 km/h 12.9 km/h 47 % 0 mm
12:08 25.8 °C 14.3 °C 1007.7 hPa SW 3.2 km/h 12.9 km/h 49 % 0 mm
12:13 26.1 °C 15.2 °C 1007.7 hPa NW 3.2 km/h 12.9 km/h 51 % 0 mm
12:18 26.3 °C 15 °C 1007.7 hPa SW 8 km/h 12.9 km/h 50 % 0 mm
12:24 26.3 °C 13.8 °C 1007.3 hPa SSW 3.2 km/h 17.7 km/h 46 % 0 mm
12:29 26.3 °C 14.1 °C 1007.3 hPa SSW 9.7 km/h 17.7 km/h 47 % 0 mm
12:34 26.4 °C 14.5 °C 1007.3 hPa SW 4.8 km/h 17.7 km/h 48 % 0 mm
12:39 26.4 °C 14.2 °C 1007.3 hPa South 8 km/h 17.7 km/h 47 % 0 mm
12:44 26.4 °C 14.5 °C 1007.3 hPa SSW 12.9 km/h 14.5 km/h 48 % 0 mm
12:49 26.4 °C 14.2 °C 1007.3 hPa WNW 1.6 km/h 16.1 km/h 47 % 0 mm
12:50 26.5 °C 14.3 °C 1007.3 hPa NNW 4.8 km/h 20.9 km/h 47 % 0 mm
12:55 26.7 °C 14.5 °C 1007.3 hPa SSW 6.4 km/h 20.9 km/h 47 % 0 mm
13:00 26.7 °C 14.8 °C 1007.3 hPa South 11.3 km/h 20.9 km/h 48 % 0 mm
13:05 26.8 °C 14.5 °C 1007.3 hPa South 1.6 km/h 17.7 km/h 47 % 0 mm
13:10 27.1 °C 14.5 °C 1007.3 hPa WSW 8 km/h 17.7 km/h 46 % 0 mm
13:15 27.1 °C 15.1 °C 1007 hPa SW 16.1 km/h 17.7 km/h 48 % 0 mm
13:20 26.9 °C 14.6 °C 1007 hPa West 4.8 km/h 17.7 km/h 47 % 0 mm
13:25 27.2 °C 14.6 °C 1007 hPa WNW 3.2 km/h 17.7 km/h 46 % 0 mm
13:27 27.4 °C 16.1 °C 1007 hPa SSW 8 km/h 17.7 km/h 50 % 0 mm
13:32 27.4 °C 15.7 °C 1006.7 hPa SW 3.2 km/h 17.7 km/h 49 % 0 mm
13:37 27.7 °C 15.7 °C 1006.7 hPa SSW 9.7 km/h 14.5 km/h 48 % 0 mm
13:42 27.8 °C 16.4 °C 1006.7 hPa SSW 4.8 km/h 16.1 km/h 50 % 0 mm
13:47 27.7 °C 16.3 °C 1006.7 hPa SSW 3.2 km/h 16.1 km/h 50 % 0 mm
13:52 27.8 °C 15.8 °C 1006.7 hPa WSW 4.8 km/h 16.1 km/h 48 % 0 mm
13:57 28 °C 14.3 °C 1006.7 hPa NW 3.2 km/h 16.1 km/h 43 % 0 mm
14:02 28.2 °C 15.8 °C 1006.3 hPa SSW 8 km/h 16.1 km/h 47 % 0 mm
14:07 28.3 °C 15.2 °C 1006.3 hPa SSW 4.8 km/h 11.3 km/h 45 % 0 mm
14:12 28.4 °C 16 °C 1006.3 hPa SSW 1.6 km/h 12.9 km/h 47 % 0 mm
14:17 28.3 °C 15.9 °C 1006 hPa South 3.2 km/h 12.9 km/h 47 % 0 mm
14:22 28.4 °C 15.7 °C 1006 hPa WSW 6.4 km/h 12.9 km/h 46 % 0 mm
14:27 28.6 °C 15.5 °C 1006 hPa SSW 1.6 km/h 16.1 km/h 45 % 0 mm
14:32 28.7 °C 14.5 °C 1005.6 hPa SSW 6.4 km/h 16.1 km/h 42 % 0 mm
14:38 28.9 °C 15.4 °C 1005.6 hPa WSW 6.4 km/h 16.1 km/h 44 % 0 mm
14:43 28.8 °C 14.6 °C 1005.6 hPa SSE 4.8 km/h 12.9 km/h 42 % 0 mm
14:47 28.9 °C 15.1 °C 1005.6 hPa West 1.6 km/h 12.9 km/h 43 % 0 mm
14:53 28.9 °C 13.6 °C 1005.3 hPa SSW 8 km/h 14.5 km/h 39 % 0 mm
14:58 29.1 °C 15.2 °C 1005.3 hPa South 9.7 km/h 14.5 km/h 43 % 0 mm
15:03 29.1 °C 15.6 °C 1005.3 hPa Calm   14.5 km/h 44 % 0 mm
15:08 29.4 °C 13.2 °C 1005.3 hPa NW 8 km/h 12.9 km/h 37 % 0 mm
15:13 29.5 °C 13.7 °C 1005 hPa SSE 3.2 km/h 16.1 km/h 38 % 0 mm
15:18 29.3 °C 13.9 °C 1005.3 hPa East 4.8 km/h 24.1 km/h 39 % 0 mm
15:23 29.3 °C 13.9 °C 1005 hPa SW 12.9 km/h 24.1 km/h 39 % 0 mm
15:28 29.4 °C 13.6 °C 1005 hPa SW 4.8 km/h 24.1 km/h 38 % 0 mm
15:33 29.4 °C 13.6 °C 1005 hPa SW 9.7 km/h 16.1 km/h 38 % 0 mm
15:38 29.3 °C 13.1 °C 1005 hPa WSW 3.2 km/h 16.1 km/h 37 % 0 mm
15:43 29.4 °C 12.8 °C 1005 hPa South 6.4 km/h 19.3 km/h 36 % 0 mm
15:48 29.6 °C 13.8 °C 1005 hPa SSW 3.2 km/h 19.3 km/h 38 % 0 mm
15:53 29.8 °C 14.4 °C 1005 hPa SW 4.8 km/h 19.3 km/h 39 % 0 mm
15:58 29.6 °C 15 °C 1005 hPa SSW 3.2 km/h 16.1 km/h 41 % 0 mm
16:03 29.3 °C 13.1 °C 1005 hPa SSW 4.8 km/h 20.9 km/h 37 % 0 mm
16:08 29.3 °C 13.5 °C 1004.6 hPa SSW 1.6 km/h 20.9 km/h 38 % 0 mm
16:13 29.6 °C 14.6 °C 1004.6 hPa SW 3.2 km/h 20.9 km/h 40 % 0 mm
16:18 29.7 °C 13.9 °C 1004.6 hPa SSW 4.8 km/h 19.3 km/h 38 % 0 mm
16:23 29.8 °C 14.4 °C 1004.6 hPa ESE 6.4 km/h 12.9 km/h 39 % 0 mm
16:28 29.8 °C 14 °C 1004.6 hPa South 4.8 km/h 11.3 km/h 38 % 0 mm
16:33 29.7 °C 13.5 °C 1004.6 hPa SSW 1.6 km/h 16.1 km/h 37 % 0 mm
16:38 29.7 °C 13.9 °C 1004.6 hPa SW 3.2 km/h 16.1 km/h 38 % 0 mm
16:43 29.7 °C 14.3 °C 1004.6 hPa South 4.8 km/h 16.1 km/h 39 % 0 mm
16:48 29.8 °C 13.5 °C 1004.6 hPa SW 4.8 km/h 14.5 km/h 37 % 0 mm
16:53 29.9 °C 14.4 °C 1004.6 hPa South 6.4 km/h 14.5 km/h 39 % 0 mm
16:58 29.8 °C 13.1 °C 1004.6 hPa SW 6.4 km/h 12.9 km/h 36 % 0 mm
17:03 29.6 °C 12.9 °C 1004.6 hPa SW 8 km/h 17.7 km/h 36 % 0 mm
17:08 29.7 °C 13.9 °C 1004.6 hPa WSW 3.2 km/h 17.7 km/h 38 % 0 mm
17:13 29.7 °C 13.5 °C 1004.6 hPa SSW 4.8 km/h 17.7 km/h 37 % 0 mm
17:18 29.7 °C 14.3 °C 1004.6 hPa SSW 3.2 km/h 14.5 km/h 39 % 0 mm
17:23 29.6 °C 12.5 °C 1004.6 hPa SW 3.2 km/h 14.5 km/h 35 % 0 mm
17:28 29.7 °C 13 °C 1004.6 hPa West 3.2 km/h 14.5 km/h 36 % 0 mm
17:33 29.8 °C 13.5 °C 1004.6 hPa Calm   12.9 km/h 37 % 0 mm
17:38 29.9 °C 14 °C 1004.6 hPa South 1.6 km/h 12.9 km/h 38 % 0 mm
17:43 29.6 °C 13.4 °C 1004.6 hPa SSW 6.4 km/h 19.3 km/h 37 % 0 mm
17:48 29.4 °C 13.2 °C 1004.6 hPa SW 1.6 km/h 19.3 km/h 37 % 0 mm
17:53 29.6 °C 13.8 °C 1004.6 hPa WSW 3.2 km/h 19.3 km/h 38 % 0 mm
17:58 29.5 °C 13.7 °C 1004.6 hPa South 1.6 km/h 12.9 km/h 38 % 0 mm
18:03 29.4 °C 13.2 °C 1004.6 hPa SSE 4.8 km/h 12.9 km/h 37 % 0 mm
18:08 29.4 °C 13.6 °C 1004.6 hPa SSW 4.8 km/h 12.9 km/h 38 % 0 mm
18:13 29.3 °C 13.9 °C 1004.6 hPa SW 8 km/h 12.9 km/h 39 % 0 mm
18:18 28.9 °C 13.6 °C 1004.6 hPa SSW 4.8 km/h 14.5 km/h 39 % 0 mm
18:23 28.8 °C 13.9 °C 1004.6 hPa ESE 9.7 km/h 16.1 km/h 40 % 0 mm
18:28 28.7 °C 13.4 °C 1004.6 hPa SW 3.2 km/h 20.9 km/h 39 % 0 mm
18:33 28.7 °C 13.8 °C 1004.6 hPa NNW 6.4 km/h 20.9 km/h 40 % 0 mm
18:38 28.7 °C 13.8 °C 1004.6 hPa SSW 1.6 km/h 20.9 km/h 40 % 0 mm
18:43 28.7 °C 13.4 °C 1004.6 hPa WSW 4.8 km/h 14.5 km/h 39 % 0 mm
18:48 28.6 °C 13.3 °C 1004.6 hPa SSW 6.4 km/h 14.5 km/h 39 % 0 mm
18:53 28.4 °C 13.9 °C 1005 hPa SW 3.2 km/h 14.5 km/h 41 % 0 mm
18:58 28.4 °C 13.5 °C 1005 hPa Calm   14.5 km/h 40 % 0 mm
19:03 28.5 °C 13.6 °C 1005 hPa NW 1.6 km/h 14.5 km/h 40 % 0 mm
19:08 28.5 °C 14 °C 1005 hPa SSW 3.2 km/h 8 km/h 41 % 0 mm
19:13 28.3 °C 13.8 °C 1005 hPa Calm   6.4 km/h 41 % 0 mm
19:18 28.1 °C 13.6 °C 1005 hPa SSW 1.6 km/h 8 km/h 41 % 0 mm
19:23 27.9 °C 13.4 °C 1005 hPa SSW 1.6 km/h 8 km/h 41 % 0 mm
19:28 27.8 °C 13.7 °C 1005 hPa Calm   8 km/h 42 % 0 mm
19:33 27.3 °C 13.6 °C 1005 hPa Calm   6.4 km/h 43 % 0 mm
19:38 26.8 °C 13.5 °C 1005 hPa Calm   1.6 km/h 44 % 0 mm
19:43 26.3 °C 13.4 °C 1005 hPa Calm   1.6 km/h 45 % 0 mm
19:48 25.9 °C 13.4 °C 1005 hPa Calm   1.6 km/h 46 % 0 mm
19:53 25.6 °C 13.5 °C 1005 hPa Calm   1.6 km/h 47 % 0 mm
19:58 25.2 °C 13.4 °C 1005 hPa Calm   1.6 km/h 48 % 0 mm
20:03 24.9 °C 13.5 °C 1005 hPa Calm   3.2 km/h 49 % 0 mm
20:08 24.5 °C 13.7 °C 1005 hPa Calm   3.2 km/h 51 % 0 mm
20:13 24.2 °C 14.3 °C 1005 hPa Calm   3.2 km/h 54 % 0 mm
20:18 23.8 °C 13.9 °C 1005 hPa Calm     54 % 0 mm
20:23 23.5 °C 13.9 °C 1005 hPa Calm     55 % 0 mm
20:28 23.3 °C 14 °C 1005 hPa Calm     56 % 0 mm
20:33 23 °C 14 °C 1005.3 hPa Calm     57 % 0 mm
20:38 22.6 °C 13.6 °C 1005.3 hPa Calm     57 % 0 mm
20:43 22.3 °C 13.6 °C 1005.3 hPa Calm     58 % 0 mm
20:48 21.9 °C 13.5 °C 1005.3 hPa Calm     59 % 0 mm
20:52 21.7 °C 13.6 °C 1005.3 hPa Calm     60 % 0 mm
20:57 21.5 °C 13.7 °C 1005.3 hPa Calm     61 % 0 mm
21:02 21.3 °C 14 °C 1005.6 hPa Calm     63 % 0 mm
21:07 21.1 °C 14.5 °C 1005.3 hPa Calm     66 % 0 mm
21:12 21.3 °C 14.7 °C 1005.6 hPa Calm     66 % 0 mm
21:17 21.3 °C 14.5 °C 1005.6 hPa Calm     65 % 0 mm
21:22 21.1 °C 14.3 °C 1005.6 hPa Calm     65 % 0 mm
21:27 20.8 °C 14.4 °C 1005.6 hPa Calm     67 % 0 mm
21:32 20.6 °C 14.5 °C 1006 hPa Calm     68 % 0 mm
21:37 20.6 °C 14.7 °C 1006 hPa Calm     69 % 0 mm
21:42 20.6 °C 14.7 °C 1006 hPa Calm     69 % 0 mm
21:47 20.4 °C 14.7 °C 1006 hPa Calm     70 % 0 mm
21:52 20.3 °C 14.9 °C 1006 hPa Calm     71 % 0 mm
21:57 20.2 °C 14.8 °C 1006.3 hPa South 1.6 km/h   71 % 0 mm
22:02 20.2 °C 15.2 °C 1006.3 hPa SSE 3.2 km/h 3.2 km/h 73 % 0 mm
22:07 20.4 °C 15 °C 1006.3 hPa SSW 3.2 km/h 4.8 km/h 71 % 0 mm
22:12 20.8 °C 15.1 °C 1006.3 hPa SE 3.2 km/h 4.8 km/h 70 % 0 mm
22:17 21.1 °C 15.2 °C 1006.7 hPa SSW 3.2 km/h 4.8 km/h 69 % 0 mm
22:22 21.4 °C 15.5 °C 1006.7 hPa SSW 3.2 km/h 6.4 km/h 69 % 0 mm
22:27 21.6 °C 15.9 °C 1006.7 hPa SSW 3.2 km/h 6.4 km/h 70 % 0 mm
22:32 21.7 °C 16 °C 1006.7 hPa SSE 3.2 km/h 8 km/h 70 % 0 mm
22:37 21.8 °C 16.3 °C 1006.7 hPa SE 1.6 km/h 8 km/h 71 % 0 mm
22:42 21.8 °C 16.3 °C 1006.7 hPa SSE 1.6 km/h 8 km/h 71 % 0 mm
22:47 21.7 °C 16.2 °C 1007 hPa Calm   6.4 km/h 71 % 0 mm
22:52 21.6 °C 16.1 °C 1007 hPa Calm   6.4 km/h 71 % 0 mm
22:57 21.3 °C 16 °C 1007 hPa Calm   3.2 km/h 72 % 0 mm
23:02 21.1 °C 16.1 °C 1006.7 hPa Calm     73 % 0 mm
23:07 20.9 °C 16.1 °C 1006.7 hPa Calm     74 % 0 mm
23:12 20.7 °C 15.9 °C 1006.7 hPa Calm     74 % 0 mm
23:17 20.4 °C 15.8 °C 1007 hPa Calm     75 % 0 mm
23:22 20.1 °C 15.7 °C 1006.7 hPa Calm     76 % 0 mm
23:23 20.1 °C 15.7 °C 1006.7 hPa Calm     76 % 0 mm
23:28 19.8 °C 15.7 °C 1006.7 hPa Calm     77 % 0 mm
23:33 19.6 °C 15.9 °C 1006.7 hPa Calm     79 % 0 mm
23:38 19.4 °C 15.9 °C 1006.7 hPa Calm     80 % 0 mm
23:40 19.4 °C 15.9 °C 1006.7 hPa Calm     80 % 0 mm
23:45 19.2 °C 15.9 °C 1006.7 hPa Calm     81 % 0 mm
23:50 19 °C 15.9 °C 1006.7 hPa Calm     82 % 0 mm
23:55 18.8 °C 15.9 °C 1007 hPa Calm     83 % 0 mm
23:59 18.7 °C 15.6 °C 1007 hPa Calm     82 % 0 mm
Spring, Texas: Villages of Bridgestone
Compliments of Weather Underground - 2.75 mb

Script developed by  Jim McMurry - jmcmurry@mwt.net Adapted for the template by  Wim van der Kuil - Leuven-Template.eu

You find our weather info also at:

UK Metoffice

WeatherCloud

Weather Underground

Mid-South Weather Network

AWEKAS

Citizen Weather Observer Program (CWOP)

HAMweather, WeatherForYou, PWS Weather

Equipment we use:

Weather-station
Davis Vantage Vue

Weather-program
Meteohub

Weather-server
Debian 7.9 x86 (Guest)

Provider
DreamHost

Davis Vantage Vue

Meteohub

Debian 7.9 x86 (Guest)

DreamHost